createdAt,value
2022-08-03T00:00:13.816Z,1001.94
2022-08-03T00:01:13.779Z,1001.94
2022-08-03T00:02:13.931Z,1001.96
2022-08-03T00:03:13.847Z,1001.94
2022-08-03T00:04:13.802Z,1001.92
2022-08-03T00:05:13.772Z,1001.90
2022-08-03T00:06:13.756Z,1001.94
2022-08-03T00:07:13.721Z,1001.92
2022-08-03T00:08:13.740Z,1001.94
2022-08-03T00:09:14.698Z,1001.92
2022-08-03T00:10:13.715Z,1001.89
2022-08-03T00:11:13.701Z,1001.90
2022-08-03T00:12:13.843Z,1001.94
2022-08-03T00:13:13.673Z,1001.93
2022-08-03T00:14:13.685Z,1001.92
2022-08-03T00:15:16.346Z,1001.91
2022-08-03T00:16:13.672Z,1001.92
2022-08-03T00:17:13.634Z,1001.88
2022-08-03T00:18:13.620Z,1001.85
2022-08-03T00:19:13.653Z,1001.90
2022-08-03T00:20:13.617Z,1001.91
2022-08-03T00:21:13.597Z,1001.88
2022-08-03T00:22:13.872Z,1001.90
2022-08-03T00:23:13.605Z,1001.86
2022-08-03T00:24:13.583Z,1001.84
2022-08-03T00:25:13.553Z,1001.85
2022-08-03T00:26:13.558Z,1001.86
2022-08-03T00:27:16.570Z,1001.83
2022-08-03T00:28:13.531Z,1001.83
2022-08-03T00:29:13.511Z,1001.79
2022-08-03T00:30:13.501Z,1001.84
2022-08-03T00:31:13.881Z,1001.80
2022-08-03T00:32:13.678Z,1001.78
2022-08-03T00:33:13.468Z,1001.78
2022-08-03T00:34:13.456Z,1001.80
2022-08-03T00:35:26.633Z,1001.79
2022-08-03T00:36:14.454Z,1001.77
2022-08-03T00:37:13.440Z,1001.77
2022-08-03T00:38:13.403Z,1001.78
2022-08-03T00:39:13.420Z,1001.76
2022-08-03T00:40:13.393Z,1001.76
2022-08-03T00:41:13.407Z,1001.78
2022-08-03T00:42:13.546Z,1001.76
2022-08-03T00:43:13.369Z,1001.78
2022-08-03T00:44:13.369Z,1001.75
2022-08-03T00:45:13.351Z,1001.76
2022-08-03T00:46:16.442Z,1001.78
2022-08-03T00:47:14.342Z,1001.76
2022-08-03T00:48:30.127Z,1001.74
2022-08-03T00:49:14.334Z,1001.74
2022-08-03T00:50:13.299Z,1001.74
2022-08-03T00:51:13.263Z,1001.77
2022-08-03T00:52:13.296Z,1001.73
2022-08-03T00:53:13.245Z,1001.75
2022-08-03T00:54:13.237Z,1001.76
2022-08-03T00:55:13.233Z,1001.77
2022-08-03T00:56:13.246Z,1001.73
2022-08-03T00:57:13.232Z,1001.75
2022-08-03T00:58:13.193Z,1001.71
2022-08-03T00:59:13.188Z,1001.78
2022-08-03T01:00:13.164Z,1001.78
2022-08-03T01:01:13.249Z,1001.77
2022-08-03T01:02:13.227Z,1001.78
2022-08-03T01:03:13.153Z,1001.76
2022-08-03T01:04:13.160Z,1001.83
2022-08-03T01:05:13.144Z,1001.80
2022-08-03T01:06:13.165Z,1001.80
2022-08-03T01:07:13.114Z,1001.75
2022-08-03T01:08:13.085Z,1001.81
2022-08-03T01:09:13.099Z,1001.76
2022-08-03T01:10:13.062Z,1001.80
2022-08-03T01:11:13.099Z,1001.82
2022-08-03T01:12:13.075Z,1001.82
2022-08-03T01:13:59.180Z,1001.85
2022-08-03T01:14:18.239Z,1001.80
2022-08-03T01:15:14.019Z,1001.80
2022-08-03T01:16:13.058Z,1001.77
2022-08-03T01:17:13.041Z,1001.77
2022-08-03T01:18:12.989Z,1001.77
2022-08-03T01:19:13.030Z,1001.75
2022-08-03T01:20:12.967Z,1001.80
2022-08-03T01:21:12.983Z,1001.72
2022-08-03T01:22:13.113Z,1001.74
2022-08-03T01:23:12.943Z,1001.76
2022-08-03T01:24:12.930Z,1001.76
2022-08-03T01:25:12.940Z,1001.74
2022-08-03T01:26:12.920Z,1001.72
2022-08-03T01:27:12.911Z,1001.77
2022-08-03T01:28:12.881Z,1001.76
2022-08-03T01:29:12.880Z,1001.79
2022-08-03T01:30:12.882Z,1001.74
2022-08-03T01:31:12.906Z,1001.77
2022-08-03T01:33:02.617Z,1001.75
2022-08-03T01:33:13.835Z,1001.71
2022-08-03T01:34:14.656Z,1001.72
2022-08-03T01:35:12.821Z,1001.73
2022-08-03T01:36:12.859Z,1001.70
2022-08-03T01:37:12.809Z,1001.68
2022-08-03T01:38:12.793Z,1001.67
2022-08-03T01:39:12.841Z,1001.68
2022-08-03T01:40:12.778Z,1001.63
2022-08-03T01:41:12.790Z,1001.66
2022-08-03T01:42:12.754Z,1001.68
2022-08-03T01:43:12.725Z,1001.64
2022-08-03T01:44:28.174Z,1001.64
2022-08-03T01:45:13.714Z,1001.66
2022-08-03T01:46:12.715Z,1001.66
2022-08-03T01:47:12.697Z,1001.67
2022-08-03T01:48:12.691Z,1001.68
2022-08-03T01:49:12.755Z,1001.66
2022-08-03T01:50:12.652Z,1001.65
2022-08-03T01:51:12.676Z,1001.65
2022-08-03T01:52:12.656Z,1001.63
2022-08-03T01:53:12.669Z,1001.57
2022-08-03T01:54:12.603Z,1001.61
2022-08-03T01:55:12.607Z,1001.56
2022-08-03T01:56:12.668Z,1001.53
2022-08-03T01:57:12.589Z,1001.52
2022-08-03T01:58:12.605Z,1001.52
2022-08-03T01:59:12.579Z,1001.56
2022-08-03T02:00:12.578Z,1001.59
2022-08-03T02:01:12.674Z,1001.57
2022-08-03T02:02:19.573Z,1001.59
2022-08-03T02:03:13.538Z,1001.53
2022-08-03T02:04:12.564Z,1001.54
2022-08-03T02:05:12.525Z,1001.55
2022-08-03T02:07:00.030Z,1001.53
2022-08-03T02:07:13.526Z,1001.52
2022-08-03T02:08:12.484Z,1001.51
2022-08-03T02:09:12.465Z,1001.49
2022-08-03T02:10:12.458Z,1001.52
2022-08-03T02:11:12.465Z,1001.49
2022-08-03T02:12:12.440Z,1001.47
2022-08-03T02:13:12.417Z,1001.47
2022-08-03T02:14:12.415Z,1001.46
2022-08-03T02:15:13.418Z,1001.45
2022-08-03T02:16:12.395Z,1001.46
2022-08-03T02:17:12.406Z,1001.46
2022-08-03T02:18:12.394Z,1001.44
2022-08-03T02:19:12.416Z,1001.47
2022-08-03T02:20:12.351Z,1001.44
2022-08-03T02:21:12.359Z,1001.47
2022-08-03T02:22:13.522Z,1001.41
2022-08-03T02:23:12.333Z,1001.44
2022-08-03T02:24:12.303Z,1001.42
2022-08-03T02:25:12.315Z,1001.42
2022-08-03T02:26:12.302Z,1001.46
2022-08-03T02:27:12.296Z,1001.41
2022-08-03T02:28:12.299Z,1001.43
2022-08-03T02:29:12.262Z,1001.39
2022-08-03T02:30:12.253Z,1001.43
2022-08-03T02:31:12.254Z,1001.42
2022-08-03T02:32:12.254Z,1001.39
2022-08-03T02:33:12.225Z,1001.45
2022-08-03T02:34:12.214Z,1001.43
2022-08-03T02:35:12.192Z,1001.42
2022-08-03T02:36:12.183Z,1001.43
2022-08-03T02:37:12.181Z,1001.40
2022-08-03T02:38:12.204Z,1001.43
2022-08-03T02:39:12.167Z,1001.46
2022-08-03T02:40:12.142Z,1001.41
2022-08-03T02:41:12.154Z,1001.41
2022-08-03T02:42:12.814Z,1001.44
2022-08-03T02:43:12.150Z,1001.39
2022-08-03T02:44:12.159Z,1001.36
2022-08-03T02:45:12.114Z,1001.42
2022-08-03T02:46:12.106Z,1001.45
2022-08-03T02:47:12.085Z,1001.43
2022-08-03T02:48:12.084Z,1001.43
2022-08-03T02:49:40.689Z,1001.39
2022-08-03T02:50:13.170Z,1001.39
2022-08-03T02:51:12.036Z,1001.40
2022-08-03T02:52:13.108Z,1001.36
2022-08-03T02:53:12.046Z,1001.43
2022-08-03T02:54:12.007Z,1001.40
2022-08-03T02:55:11.995Z,1001.41
2022-08-03T02:56:11.998Z,1001.43
2022-08-03T02:57:11.972Z,1001.41
2022-08-03T02:58:11.992Z,1001.43
2022-08-03T02:59:12.733Z,1001.45
2022-08-03T03:00:11.939Z,1001.45
2022-08-03T03:01:12.033Z,1001.38
2022-08-03T03:02:11.917Z,1001.41
2022-08-03T03:03:11.958Z,1001.41
2022-08-03T03:04:11.920Z,1001.37
2022-08-03T03:05:53.173Z,1001.34
2022-08-03T03:06:12.884Z,1001.34
2022-08-03T03:07:11.880Z,1001.36
2022-08-03T03:08:18.526Z,1001.35
2022-08-03T03:09:12.874Z,1001.37
2022-08-03T03:10:11.836Z,1001.37
2022-08-03T03:11:11.863Z,1001.35
2022-08-03T03:12:11.828Z,1001.38
2022-08-03T03:13:11.821Z,1001.39
2022-08-03T03:14:11.831Z,1001.41
2022-08-03T03:15:11.822Z,1001.38
2022-08-03T03:16:11.787Z,1001.37
2022-08-03T03:17:11.789Z,1001.39
2022-08-03T03:18:11.788Z,1001.40
2022-08-03T03:19:11.765Z,1001.40
2022-08-03T03:20:11.746Z,1001.41
2022-08-03T03:21:11.750Z,1001.43
2022-08-03T03:22:11.740Z,1001.41
2022-08-03T03:23:11.715Z,1001.41
2022-08-03T03:24:11.765Z,1001.39
2022-08-03T03:25:11.685Z,1001.41
2022-08-03T03:26:11.681Z,1001.41
2022-08-03T03:27:11.671Z,1001.39
2022-08-03T03:28:12.663Z,1001.40
2022-08-03T03:29:11.675Z,1001.43
2022-08-03T03:30:11.653Z,1001.46
2022-08-03T03:31:11.632Z,1001.44
2022-08-03T03:32:11.629Z,1001.45
2022-08-03T03:33:11.654Z,1001.44
2022-08-03T03:34:11.599Z,1001.47
2022-08-03T03:35:11.624Z,1001.45
2022-08-03T03:36:11.571Z,1001.44
2022-08-03T03:37:11.580Z,1001.44
2022-08-03T03:38:11.798Z,1001.46
2022-08-03T03:39:15.989Z,1001.50
2022-08-03T03:40:11.554Z,1001.48
2022-08-03T03:41:11.534Z,1001.49
2022-08-03T03:42:11.531Z,1001.52
2022-08-03T03:43:11.521Z,1001.51
2022-08-03T03:44:11.485Z,1001.52
2022-08-03T03:45:11.504Z,1001.50
2022-08-03T03:46:11.558Z,1001.50
2022-08-03T03:47:11.457Z,1001.48
2022-08-03T03:48:11.455Z,1001.49
2022-08-03T03:49:11.471Z,1001.47
2022-08-03T03:50:11.466Z,1001.44
2022-08-03T03:51:11.479Z,1001.42
2022-08-03T03:52:11.410Z,1001.44
2022-08-03T03:53:11.398Z,1001.44
2022-08-03T03:54:11.374Z,1001.45
2022-08-03T03:55:11.385Z,1001.43
2022-08-03T03:56:11.376Z,1001.44
2022-08-03T03:57:13.770Z,1001.36
2022-08-03T03:58:11.369Z,1001.41
2022-08-03T03:59:11.336Z,1001.40
2022-08-03T04:00:11.337Z,1001.42
2022-08-03T04:01:11.402Z,1001.40
2022-08-03T04:02:11.323Z,1001.40
2022-08-03T04:03:11.307Z,1001.39
2022-08-03T04:04:11.286Z,1001.41
2022-08-03T04:05:11.297Z,1001.39
2022-08-03T04:06:11.283Z,1001.38
2022-08-03T04:07:11.296Z,1001.37
2022-08-03T04:08:11.269Z,1001.36
2022-08-03T04:09:11.228Z,1001.37
2022-08-03T04:10:14.745Z,1001.36
2022-08-03T04:11:11.220Z,1001.38
2022-08-03T04:12:11.220Z,1001.38
2022-08-03T04:13:11.230Z,1001.40
2022-08-03T04:14:11.203Z,1001.39
2022-08-03T04:15:11.207Z,1001.40
2022-08-03T04:16:11.169Z,1001.42
2022-08-03T04:17:11.246Z,1001.42
2022-08-03T04:18:11.143Z,1001.43
2022-08-03T04:19:11.149Z,1001.44
2022-08-03T04:20:11.142Z,1001.40
2022-08-03T04:21:11.113Z,1001.43
2022-08-03T04:22:11.158Z,1001.39
2022-08-03T04:23:15.631Z,1001.41
2022-08-03T04:24:11.066Z,1001.42
2022-08-03T04:25:11.110Z,1001.38
2022-08-03T04:26:11.063Z,1001.39
2022-08-03T04:27:11.267Z,1001.40
2022-08-03T04:28:30.823Z,1001.39
2022-08-03T04:29:12.039Z,1001.40
2022-08-03T04:30:11.024Z,1001.41
2022-08-03T04:31:11.010Z,1001.40
2022-08-03T04:32:11.047Z,1001.41
2022-08-03T04:33:11.013Z,1001.40
2022-08-03T04:34:10.985Z,1001.40
2022-08-03T04:35:10.973Z,1001.43
2022-08-03T04:36:11.028Z,1001.43
2022-08-03T04:37:10.964Z,1001.46
2022-08-03T04:38:10.966Z,1001.46
2022-08-03T04:39:10.933Z,1001.48
2022-08-03T04:40:10.940Z,1001.45
2022-08-03T04:41:10.904Z,1001.48
2022-08-03T04:42:10.904Z,1001.42
2022-08-03T04:43:10.902Z,1001.46
2022-08-03T04:44:10.903Z,1001.42
2022-08-03T04:45:10.873Z,1001.44
2022-08-03T04:46:10.874Z,1001.47
2022-08-03T04:47:10.844Z,1001.51
2022-08-03T04:48:10.891Z,1001.49
2022-08-03T04:49:10.887Z,1001.49
2022-08-03T04:50:13.509Z,1001.52
2022-08-03T04:51:10.816Z,1001.52
2022-08-03T04:52:10.876Z,1001.48
2022-08-03T04:53:10.784Z,1001.46
2022-08-03T04:54:10.793Z,1001.51
2022-08-03T04:55:10.800Z,1001.49
2022-08-03T04:56:10.775Z,1001.55
2022-08-03T04:57:10.756Z,1001.54
2022-08-03T04:58:11.767Z,1001.53
2022-08-03T04:59:10.785Z,1001.55
2022-08-03T05:00:10.716Z,1001.55
2022-08-03T05:01:10.837Z,1001.60
2022-08-03T05:02:10.765Z,1001.59
2022-08-03T05:03:20.048Z,1001.58
2022-08-03T05:04:11.692Z,1001.59
2022-08-03T05:05:10.667Z,1001.61
2022-08-03T05:06:11.317Z,1001.61
2022-08-03T05:07:11.574Z,1001.60
2022-08-03T05:08:11.031Z,1001.59
2022-08-03T05:09:10.630Z,1001.58
2022-08-03T05:10:16.059Z,1001.60
2022-08-03T05:11:11.629Z,1001.61
2022-08-03T05:12:10.603Z,1001.60
2022-08-03T05:13:10.618Z,1001.59
2022-08-03T05:14:10.591Z,1001.59
2022-08-03T05:15:10.576Z,1001.65
2022-08-03T05:16:10.556Z,1001.65
2022-08-03T05:17:10.562Z,1001.62
2022-08-03T05:18:13.906Z,1001.64
2022-08-03T05:19:10.573Z,1001.65
2022-08-03T05:20:10.524Z,1001.65
2022-08-03T05:21:10.495Z,1001.69
2022-08-03T05:22:10.508Z,1001.67
2022-08-03T05:23:10.496Z,1001.67
2022-08-03T05:24:10.493Z,1001.68
2022-08-03T05:25:16.989Z,1001.66
2022-08-03T05:26:11.461Z,1001.65
2022-08-03T05:27:10.475Z,1001.70
2022-08-03T05:28:10.434Z,1001.69
2022-08-03T05:29:10.452Z,1001.64
2022-08-03T05:30:31.239Z,1001.66
2022-08-03T05:31:11.417Z,1001.67
2022-08-03T05:32:10.427Z,1001.67
2022-08-03T05:33:10.392Z,1001.70
2022-08-03T05:34:10.360Z,1001.71
2022-08-03T05:36:01.011Z,1001.72
2022-08-03T05:36:11.356Z,1001.73
2022-08-03T05:37:10.336Z,1001.70
2022-08-03T05:38:10.373Z,1001.72
2022-08-03T05:39:10.315Z,1001.71
2022-08-03T05:40:10.323Z,1001.73
2022-08-03T05:41:22.857Z,1001.77
2022-08-03T05:42:11.285Z,1001.74
2022-08-03T05:43:10.279Z,1001.74
2022-08-03T05:44:10.297Z,1001.75
2022-08-03T05:45:10.284Z,1001.72
2022-08-03T05:46:12.312Z,1001.73
2022-08-03T05:47:10.226Z,1001.73
2022-08-03T05:48:10.249Z,1001.74
2022-08-03T05:49:10.337Z,1001.72
2022-08-03T05:50:10.242Z,1001.72
2022-08-03T05:51:10.200Z,1001.72
2022-08-03T05:52:12.506Z,1001.67
2022-08-03T05:53:10.194Z,1001.67
2022-08-03T05:54:10.191Z,1001.67
2022-08-03T05:55:10.201Z,1001.67
2022-08-03T05:56:13.819Z,1001.69
2022-08-03T05:57:11.150Z,1001.72
2022-08-03T05:58:10.133Z,1001.73
2022-08-03T05:59:35.725Z,1001.72
2022-08-03T06:00:11.126Z,1001.71
2022-08-03T06:01:10.180Z,1001.69
2022-08-03T06:02:10.157Z,1001.71
2022-08-03T06:03:10.090Z,1001.67
2022-08-03T06:04:10.076Z,1001.67
2022-08-03T06:05:10.065Z,1001.69
2022-08-03T06:06:10.037Z,1001.70
2022-08-03T06:07:10.066Z,1001.72
2022-08-03T06:08:10.056Z,1001.72
2022-08-03T06:09:11.014Z,1001.75
2022-08-03T06:10:36.190Z,1001.69
2022-08-03T06:11:11.000Z,1001.72
2022-08-03T06:12:13.923Z,1001.70
2022-08-03T06:13:09.978Z,1001.71
2022-08-03T06:14:09.994Z,1001.69
2022-08-03T06:15:11.445Z,1001.71
2022-08-03T06:16:09.974Z,1001.66
2022-08-03T06:17:09.932Z,1001.67
2022-08-03T06:18:09.920Z,1001.62
2022-08-03T06:19:09.911Z,1001.70
2022-08-03T06:20:10.014Z,1001.72
2022-08-03T06:21:15.189Z,1001.71
2022-08-03T06:22:10.959Z,1001.74
2022-08-03T06:23:16.191Z,1001.72
2022-08-03T06:24:10.887Z,1001.69
2022-08-03T06:25:12.871Z,1001.68
2022-08-03T06:26:09.881Z,1001.66
2022-08-03T06:27:09.827Z,1001.69
2022-08-03T06:28:15.091Z,1001.66
2022-08-03T06:29:10.851Z,1001.67
2022-08-03T06:30:09.809Z,1001.68
2022-08-03T06:31:09.797Z,1001.68
2022-08-03T06:32:09.873Z,1001.72
2022-08-03T06:33:09.778Z,1001.69
2022-08-03T06:34:33.028Z,1001.68
2022-08-03T06:35:10.756Z,1001.70
2022-08-03T06:36:09.795Z,1001.70
2022-08-03T06:37:09.730Z,1001.68
2022-08-03T06:38:09.716Z,1001.69
2022-08-03T06:39:09.736Z,1001.71
2022-08-03T06:40:09.698Z,1001.67
2022-08-03T06:41:09.692Z,1001.68
2022-08-03T06:42:09.888Z,1001.70
2022-08-03T06:43:12.751Z,1001.73
2022-08-03T06:44:10.337Z,1001.71
2022-08-03T06:45:09.680Z,1001.71
2022-08-03T06:46:09.631Z,1001.78
2022-08-03T06:47:09.638Z,1001.75
2022-08-03T06:48:09.629Z,1001.72
2022-08-03T06:49:09.717Z,1001.71
2022-08-03T06:50:17.107Z,1001.75
2022-08-03T06:51:10.589Z,1001.74
2022-08-03T06:52:09.597Z,1001.75
2022-08-03T06:53:09.572Z,1001.72
2022-08-03T06:54:10.564Z,1001.72
2022-08-03T06:55:09.575Z,1001.72
2022-08-03T06:56:09.560Z,1001.71
2022-08-03T06:57:09.531Z,1001.75
2022-08-03T06:58:09.514Z,1001.70
2022-08-03T06:59:09.556Z,1001.69
2022-08-03T07:00:12.454Z,1001.74
2022-08-03T07:01:09.542Z,1001.73
2022-08-03T07:02:09.526Z,1001.76
2022-08-03T07:03:09.463Z,1001.75
2022-08-03T07:04:09.440Z,1001.76
2022-08-03T07:05:09.446Z,1001.79
2022-08-03T07:06:09.486Z,1001.76
2022-08-03T07:07:09.448Z,1001.79
2022-08-03T07:08:09.414Z,1001.78
2022-08-03T07:09:09.407Z,1001.80
2022-08-03T07:10:09.427Z,1001.79
2022-08-03T07:11:09.371Z,1001.80
2022-08-03T07:12:09.408Z,1001.83
2022-08-03T07:13:09.359Z,1001.83
2022-08-03T07:14:09.355Z,1001.82
2022-08-03T07:15:09.347Z,1001.84
2022-08-03T07:16:10.341Z,1001.81
2022-08-03T07:17:11.976Z,1001.83
2022-08-03T07:18:09.358Z,1001.79
2022-08-03T07:19:09.295Z,1001.82
2022-08-03T07:20:09.309Z,1001.80
2022-08-03T07:21:09.310Z,1001.78
2022-08-03T07:22:09.287Z,1001.85
2022-08-03T07:23:09.269Z,1001.81
2022-08-03T07:24:09.287Z,1001.82
2022-08-03T07:25:09.306Z,1001.82
2022-08-03T07:26:09.497Z,1001.87
2022-08-03T07:27:09.230Z,1001.86
2022-08-03T07:28:09.252Z,1001.89
2022-08-03T07:29:14.873Z,1001.86
2022-08-03T07:30:10.205Z,1001.92
2022-08-03T07:31:09.223Z,1001.92
2022-08-03T07:32:09.269Z,1001.81
2022-08-03T07:33:09.149Z,1001.84
2022-08-03T07:34:09.209Z,1001.82
2022-08-03T07:35:09.167Z,1001.86
2022-08-03T07:36:10.150Z,1001.85
2022-08-03T07:37:09.122Z,1001.86
2022-08-03T07:38:09.119Z,1001.87
2022-08-03T07:39:17.362Z,1001.83
2022-08-03T07:40:10.089Z,1001.80
2022-08-03T07:41:09.096Z,1001.85
2022-08-03T07:42:09.095Z,1001.84
2022-08-03T07:43:09.061Z,1001.82
2022-08-03T07:44:09.092Z,1001.83
2022-08-03T07:45:09.067Z,1001.79
2022-08-03T07:46:10.047Z,1001.78
2022-08-03T07:47:09.222Z,1001.79
2022-08-03T07:48:12.384Z,1001.82
2022-08-03T07:49:09.097Z,1001.80
2022-08-03T07:50:09.041Z,1001.76
2022-08-03T07:51:09.013Z,1001.77
2022-08-03T07:52:09.034Z,1001.74
2022-08-03T07:53:08.989Z,1001.72
2022-08-03T07:54:08.937Z,1001.74
2022-08-03T07:55:08.953Z,1001.69
2022-08-03T07:56:11.290Z,1001.68
2022-08-03T07:57:08.928Z,1001.73
2022-08-03T07:58:08.922Z,1001.69
2022-08-03T07:59:08.917Z,1001.68
2022-08-03T08:00:08.901Z,1001.71
2022-08-03T08:01:08.939Z,1001.73
2022-08-03T08:02:08.860Z,1001.69
2022-08-03T08:03:08.852Z,1001.70
2022-08-03T08:04:08.838Z,1001.63
2022-08-03T08:05:08.835Z,1001.67
2022-08-03T08:06:08.843Z,1001.68
2022-08-03T08:07:08.796Z,1001.66
2022-08-03T08:08:08.813Z,1001.68
2022-08-03T08:09:08.788Z,1001.67
2022-08-03T08:10:08.810Z,1001.67
2022-08-03T08:11:08.777Z,1001.69
2022-08-03T08:12:15.320Z,1001.67
2022-08-03T08:13:09.741Z,1001.64
2022-08-03T08:14:08.743Z,1001.64
2022-08-03T08:15:08.735Z,1001.60
2022-08-03T08:16:08.746Z,1001.62
2022-08-03T08:17:08.734Z,1001.61
2022-08-03T08:18:08.730Z,1001.62
2022-08-03T08:19:08.677Z,1001.63
2022-08-03T08:20:08.688Z,1001.63
2022-08-03T08:21:08.766Z,1001.59
2022-08-03T08:22:08.693Z,1001.55
2022-08-03T08:23:24.864Z,1001.56
2022-08-03T08:24:11.056Z,1001.57
2022-08-03T08:25:09.670Z,1001.60
2022-08-03T08:26:08.613Z,1001.58
2022-08-03T08:27:08.641Z,1001.55
2022-08-03T08:28:22.452Z,1001.61
2022-08-03T08:29:09.592Z,1001.69
2022-08-03T08:30:11.528Z,1001.69
2022-08-03T08:31:08.564Z,1001.65
2022-08-03T08:32:08.582Z,1001.77
2022-08-03T08:33:10.476Z,1001.72
2022-08-03T08:34:09.613Z,1001.76
2022-08-03T08:35:08.512Z,1001.66
2022-08-03T08:36:12.129Z,1001.64
2022-08-03T08:37:09.530Z,1001.58
2022-08-03T08:38:08.497Z,1001.62
2022-08-03T08:39:08.486Z,1001.63
2022-08-03T08:40:08.476Z,1001.73
2022-08-03T08:41:08.454Z,1001.70
2022-08-03T08:42:08.454Z,1001.74
2022-08-03T08:43:08.465Z,1001.72
2022-08-03T08:44:08.479Z,1001.77
2022-08-03T08:45:08.447Z,1001.72
2022-08-03T08:46:08.512Z,1001.74
2022-08-03T08:47:08.393Z,1001.71
2022-08-03T08:48:08.649Z,1001.72
2022-08-03T08:49:08.426Z,1001.78
2022-08-03T08:50:27.374Z,1001.78
2022-08-03T08:51:09.871Z,1001.71
2022-08-03T08:52:25.248Z,1001.63
2022-08-03T08:53:10.724Z,1001.63
2022-08-03T08:54:09.336Z,1001.49
2022-08-03T08:55:08.365Z,1001.44
2022-08-03T08:56:08.318Z,1001.36
2022-08-03T08:57:21.338Z,1001.31
2022-08-03T08:58:09.315Z,1001.27
2022-08-03T08:59:08.341Z,1001.21
2022-08-03T09:00:08.281Z,1001.15
2022-08-03T09:01:08.396Z,1001.10
2022-08-03T09:02:08.279Z,1001.12
2022-08-03T09:03:08.272Z,1001.07
2022-08-03T09:04:08.308Z,1001.09
2022-08-03T09:05:08.255Z,1001.11
2022-08-03T09:06:08.241Z,1001.03
2022-08-03T09:07:19.580Z,1001.04
2022-08-03T09:08:09.217Z,1001.05
2022-08-03T09:09:08.224Z,1001.04
2022-08-03T09:10:11.174Z,1001.02
2022-08-03T09:11:09.212Z,1001.00
2022-08-03T09:12:35.359Z,1001.13
2022-08-03T09:13:09.161Z,1001.25
2022-08-03T09:14:08.167Z,1001.27
2022-08-03T09:15:17.045Z,1001.29
2022-08-03T09:16:09.126Z,1001.34
2022-08-03T09:17:08.131Z,1001.37
2022-08-03T09:18:08.126Z,1001.38
2022-08-03T09:19:08.157Z,1001.32
2022-08-03T09:20:08.160Z,1001.25
2022-08-03T09:21:29.615Z,1001.19
2022-08-03T09:22:09.081Z,1001.16
2022-08-03T09:23:33.233Z,1001.13
2022-08-03T09:24:16.680Z,1001.06
2022-08-03T09:25:23.882Z,1001.00
2022-08-03T09:26:09.179Z,1000.93
2022-08-03T09:27:08.037Z,1000.89
2022-08-03T09:28:08.022Z,1000.84
2022-08-03T09:29:13.516Z,1000.84
2022-08-03T09:30:33.635Z,1000.86
2022-08-03T09:31:09.002Z,1000.75
2022-08-03T09:32:08.011Z,1000.76
2022-08-03T09:33:08.401Z,1000.75
2022-08-03T09:34:07.977Z,1000.69
2022-08-03T09:35:09.488Z,1000.66
2022-08-03T09:36:07.977Z,1000.62
2022-08-03T09:37:07.969Z,1000.65
2022-08-03T09:38:14.056Z,1000.64
2022-08-03T09:39:08.942Z,1000.62
2022-08-03T09:40:08.387Z,1000.64
2022-08-03T09:41:07.963Z,1000.60
2022-08-03T09:42:08.023Z,1000.57
2022-08-03T09:43:08.019Z,1000.56
2022-08-03T09:44:07.945Z,1000.58
2022-08-03T09:45:07.943Z,1000.55
2022-08-03T09:46:07.865Z,1000.49
2022-08-03T09:47:07.883Z,1000.50
2022-08-03T09:48:07.861Z,1000.46
2022-08-03T09:49:11.653Z,1000.44
2022-08-03T09:50:07.908Z,1000.55
2022-08-03T09:51:13.627Z,1000.71
2022-08-03T09:52:31.452Z,1000.60
2022-08-03T09:53:08.840Z,1000.66
2022-08-03T09:54:16.348Z,1000.68
2022-08-03T09:56:31.595Z,1000.64
2022-08-03T09:56:35.923Z,1000.68
2022-08-03T09:57:08.808Z,1000.67
2022-08-03T09:58:07.784Z,1000.73
2022-08-03T09:59:07.796Z,1000.74
2022-08-03T10:00:08.426Z,1000.71
2022-08-03T10:01:07.863Z,1000.71
2022-08-03T10:02:08.763Z,1000.71
2022-08-03T10:03:07.762Z,1000.77
2022-08-03T10:04:07.762Z,1000.74
2022-08-03T10:05:07.761Z,1000.77
2022-08-03T10:06:07.756Z,1000.72
2022-08-03T10:07:07.712Z,1000.71
2022-08-03T10:08:07.709Z,1000.70
2022-08-03T10:09:07.722Z,1000.71
2022-08-03T10:10:31.422Z,1000.71
2022-08-03T10:11:08.689Z,1000.67
2022-08-03T10:12:07.659Z,1000.66
2022-08-03T10:13:07.716Z,1000.65
2022-08-03T10:14:07.641Z,1000.69
2022-08-03T10:15:07.619Z,1000.66
2022-08-03T10:16:21.153Z,1000.60
2022-08-03T10:17:08.715Z,1000.67
2022-08-03T10:18:07.612Z,1000.64
2022-08-03T10:19:07.609Z,1000.62
2022-08-03T10:20:07.607Z,1000.61
2022-08-03T10:21:07.696Z,1000.59
2022-08-03T10:22:07.596Z,1000.54
2022-08-03T10:23:07.565Z,1000.57
2022-08-03T10:24:07.562Z,1000.54
2022-08-03T10:25:07.545Z,1000.54
2022-08-03T10:26:07.544Z,1000.52
2022-08-03T10:27:07.559Z,1000.51
2022-08-03T10:28:07.524Z,1000.57
2022-08-03T10:29:07.519Z,1000.54
2022-08-03T10:30:08.503Z,1000.49
2022-08-03T10:31:07.549Z,1000.55
2022-08-03T10:32:07.497Z,1000.55
2022-08-03T10:33:50.182Z,1000.55
2022-08-03T10:34:08.458Z,1000.53
2022-08-03T10:35:19.588Z,1000.48
2022-08-03T10:36:08.534Z,1000.53
2022-08-03T10:37:07.430Z,1000.51
2022-08-03T10:38:07.436Z,1000.53
2022-08-03T10:39:15.939Z,1000.51
2022-08-03T10:40:08.413Z,1000.50
2022-08-03T10:41:07.398Z,1000.46
2022-08-03T10:42:14.438Z,1000.41
2022-08-03T10:43:08.387Z,1000.45
2022-08-03T10:44:07.357Z,1000.43
2022-08-03T10:45:07.372Z,1000.44
2022-08-03T10:46:07.347Z,1000.45
2022-08-03T10:47:07.330Z,1000.41
2022-08-03T10:48:07.329Z,1000.40
2022-08-03T10:49:07.389Z,1000.41
2022-08-03T10:50:07.296Z,1000.46
2022-08-03T10:51:07.294Z,1000.44
2022-08-03T10:52:12.880Z,1000.40
2022-08-03T10:53:08.277Z,1000.38
2022-08-03T10:54:07.262Z,1000.36
2022-08-03T10:55:07.618Z,1000.37
2022-08-03T10:56:07.240Z,1000.40
2022-08-03T10:57:14.404Z,1000.38
2022-08-03T10:58:11.243Z,1000.39
2022-08-03T10:59:08.787Z,1000.36
2022-08-03T11:00:07.416Z,1000.37
2022-08-03T11:01:07.263Z,1000.30
2022-08-03T11:02:07.192Z,1000.32
2022-08-03T11:03:07.246Z,1000.34
2022-08-03T11:04:10.959Z,1000.30
2022-08-03T11:05:08.230Z,1000.30
2022-08-03T11:06:07.126Z,1000.30
2022-08-03T11:07:07.137Z,1000.27
2022-08-03T11:08:07.286Z,1000.26
2022-08-03T11:09:07.143Z,1000.25
2022-08-03T11:10:10.523Z,1000.26
2022-08-03T11:11:07.106Z,1000.28
2022-08-03T11:12:07.073Z,1000.28
2022-08-03T11:13:07.059Z,1000.24
2022-08-03T11:14:07.092Z,1000.28
2022-08-03T11:15:07.298Z,1000.26
2022-08-03T11:16:10.911Z,1000.24
2022-08-03T11:17:08.049Z,1000.21
2022-08-03T11:18:08.266Z,1000.23
2022-08-03T11:19:07.053Z,1000.17
2022-08-03T11:20:07.053Z,1000.18
2022-08-03T11:21:07.045Z,1000.19
2022-08-03T11:22:06.973Z,1000.16
2022-08-03T11:23:06.964Z,1000.21
2022-08-03T11:24:07.141Z,1000.20
2022-08-03T11:25:06.972Z,1000.18
2022-08-03T11:26:06.984Z,1000.16
2022-08-03T11:27:06.951Z,1000.18
2022-08-03T11:28:07.579Z,1000.22
2022-08-03T11:29:06.923Z,1000.17
2022-08-03T11:30:06.966Z,1000.17
2022-08-03T11:31:06.905Z,1000.18
2022-08-03T11:32:06.895Z,1000.17
2022-08-03T11:33:06.894Z,1000.16
2022-08-03T11:34:06.894Z,1000.12
2022-08-03T11:35:06.876Z,1000.09
2022-08-03T11:36:06.853Z,1000.09
2022-08-03T11:37:06.830Z,1000.09
2022-08-03T11:38:06.851Z,1000.08
2022-08-03T11:39:06.830Z,1000.07
2022-08-03T11:40:06.824Z,1000.05
2022-08-03T11:41:06.825Z,1000.06
2022-08-03T11:42:06.797Z,1000.04
2022-08-03T11:43:06.829Z,999.99
2022-08-03T11:44:06.778Z,1000.01
2022-08-03T11:45:06.780Z,1000.00
2022-08-03T11:46:06.767Z,1000.02
2022-08-03T11:47:06.754Z,1000.00
2022-08-03T11:48:06.719Z,1000.01
2022-08-03T11:49:10.527Z,1000.01
2022-08-03T11:50:06.728Z,1000.04
2022-08-03T11:51:06.714Z,1000.04
2022-08-03T11:52:06.710Z,1000.03
2022-08-03T11:53:06.675Z,1000.06
2022-08-03T11:54:06.668Z,1000.04
2022-08-03T11:55:06.676Z,1000.05
2022-08-03T11:56:06.700Z,1000.05
2022-08-03T11:57:07.644Z,1000.02
2022-08-03T11:59:01.263Z,1000.05
2022-08-03T11:59:20.768Z,1000.05
2022-08-03T12:00:07.684Z,1000.01
2022-08-03T12:01:06.633Z,999.99
2022-08-03T12:02:06.623Z,1000.00
2022-08-03T12:03:06.698Z,1000.01
2022-08-03T12:04:06.562Z,999.98
2022-08-03T12:05:06.576Z,999.98